Time;durP1;ratioP1;P1;durP2;ratioP2;P2;SDS_P1;SDS_P2;PMS_P1;PMS_P2;Temp;Humidity;BMP_temperature;BMP_pressure;BME280_temperature;BME280_humidity;BME280_pressure;Samples;Min_cycle;Max_cycle;Signal;HPM_P1;HPM_P2
2021/12/10 00:00:22;;;;;;;81.05;35.95;;;-2.50;99.90;;;;;;5050565;28;20064;-75
2021/12/10 00:02:49;;;;;;;91.82;34.28;;;-2.50;99.90;;;;;;5050587;28;20028;-75
2021/12/10 00:05:25;;;;;;;84.90;36.47;;;-2.40;99.90;;;;;;5051765;28;20022;-75
2021/12/10 00:07:52;;;;;;;87.50;35.63;;;-2.40;99.90;;;;;;5051720;27;20024;-76
2021/12/10 00:10:22;;;;;;;94.38;37.05;;;-2.40;99.90;;;;;;5050436;28;20032;-75
2021/12/10 00:12:51;;;;;;;88.85;34.35;;;-2.40;99.90;;;;;;5051669;28;20035;-76
2021/12/10 00:15:28;;;;;;;96.00;38.08;;;-2.40;99.90;;;;;;5050354;28;20026;-75
2021/12/10 00:17:56;;;;;;;90.00;37.05;;;-2.30;99.90;;;;;;5051685;28;20018;-75
2021/12/10 00:20:25;;;;;;;90.93;35.65;;;-2.30;99.90;;;;;;5051477;28;20096;-75
2021/12/10 00:22:57;;;;;;;85.88;31.65;;;-2.30;99.90;;;;;;5051558;28;20021;-75
2021/12/10 00:25:33;;;;;;;83.63;33.13;;;-2.30;99.90;;;;;;5051490;28;20061;-75
2021/12/10 00:27:59;;;;;;;80.82;33.08;;;-2.20;99.90;;;;;;5051477;28;20107;-75
2021/12/10 00:30:31;;;;;;;85.25;33.88;;;-2.20;99.90;;;;;;5050014;28;20483;-75
2021/12/10 00:33:09;;;;;;;80.32;33.03;;;-2.20;99.90;;;;;;5051392;28;20503;-75
2021/12/10 00:35:35;;;;;;;83.70;32.05;;;-2.20;99.90;;;;;;5051261;28;20021;-75
2021/12/10 00:38:01;;;;;;;83.05;35.33;;;-2.10;99.90;;;;;;5051305;28;20029;-76
2021/12/10 00:40:27;;;;;;;78.03;31.20;;;-2.10;99.90;;;;;;5051185;28;20043;-75
2021/12/10 00:42:54;;;;;;;87.32;33.22;;;-2.10;99.90;;;;;;5049877;28;20495;-75
2021/12/10 00:45:19;;;;;;;78.30;32.85;;;-2.10;99.90;;;;;;5051024;28;20054;-75
2021/12/10 00:47:46;;;;;;;86.75;32.90;;;-2.10;99.90;;;;;;5051151;28;20021;-75
2021/12/10 00:50:17;;;;;;;84.88;36.00;;;-2.10;99.90;;;;;;5049783;28;20111;-75
2021/12/10 00:52:44;;;;;;;87.78;35.05;;;-2.10;99.90;;;;;;5050997;28;20040;-76
2021/12/10 00:55:10;;;;;;;75.57;31.80;;;-2.10;99.90;;;;;;5050910;28;20021;-75
2021/12/10 00:57:36;;;;;;;77.03;30.58;;;-2.10;99.90;;;;;;5050977;28;20033;-75
2021/12/10 01:00:11;;;;;;;66.65;29.38;;;-2.10;99.90;;;;;;5049615;28;20025;-75
2021/12/10 01:02:37;;;;;;;71.22;29.63;;;-2.10;99.90;;;;;;5050836;28;20065;-75
2021/12/10 01:05:04;;;;;;;83.53;34.90;;;-2.10;99.90;;;;;;5049572;28;20052;-75
2021/12/10 01:07:32;;;;;;;105.97;49.70;;;-2.10;99.90;;;;;;5050740;28;20074;-75
2021/12/10 01:10:01;;;;;;;110.65;50.58;;;-2.10;99.90;;;;;;5050723;28;20025;-76
2021/12/10 01:12:34;;;;;;;93.75;41.25;;;-2.10;99.90;;;;;;5050200;28;20045;-78
2021/12/10 01:23:51;;;;;;;107.15;41.00;;;-2.10;99.90;;;;;;5050503;28;20070;-77
2021/12/10 01:26:54;;;;;;;152.25;62.78;;;-2.10;99.90;;;;;;5050529;28;20028;-78
2021/12/10 01:29:27;;;;;;;85.35;34.47;;;-2.10;99.90;;;;;;5050517;28;20049;-76
2021/12/10 01:31:54;;;;;;;76.45;31.75;;;-2.10;99.90;;;;;;5050382;28;20063;-77
2021/12/10 01:34:20;;;;;;;80.30;31.35;;;-2.10;99.90;;;;;;5049192;28;20050;-76
2021/12/10 01:36:46;;;;;;;86.65;32.75;;;-2.10;99.90;;;;;;5050357;28;20025;-76
2021/12/10 01:39:15;;;;;;;79.30;32.03;;;-2.10;99.90;;;;;;5050341;28;20039;-76
2021/12/10 01:41:43;;;;;;;77.60;32.92;;;-2.10;99.90;;;;;;5050334;28;20017;-76
2021/12/10 01:44:16;;;;;;;71.22;30.70;;;-2.10;99.90;;;;;;5048900;28;20629;-76
2021/12/10 01:46:43;;;;;;;;;;;-2.10;99.90;;;;;;5049396;28;20077;-77
2021/12/10 01:49:12;;;;;;;78.43;30.05;;;-2.10;99.90;;;;;;5048945;28;19957;-76
2021/12/10 01:51:39;;;;;;;72.70;29.63;;;-2.20;99.90;;;;;;5050137;28;20029;-76
2021/12/10 01:54:12;;;;;;;75.30;30.63;;;-2.20;99.90;;;;;;5050086;28;20025;-76
2021/12/10 01:56:39;;;;;;;73.18;31.00;;;-2.20;99.90;;;;;;5050144;28;20436;-77
2021/12/10 01:59:08;;;;;;;70.25;29.52;;;-2.20;99.90;;;;;;5048757;28;20031;-76
2021/12/10 02:01:41;;;;;;;78.22;34.65;;;-2.10;99.90;;;;;;5050039;28;20105;-77
2021/12/10 02:04:13;;;;;;;77.07;31.95;;;-2.10;99.90;;;;;;5048780;28;20077;-76
2021/12/10 02:06:39;;;;;;;75.63;29.38;;;-2.10;99.90;;;;;;5049970;28;20017;-76
2021/12/10 02:09:08;;;;;;;71.30;29.10;;;-2.20;99.90;;;;;;5048631;28;20097;-76
2021/12/10 02:11:34;;;;;;;76.75;29.38;;;-2.20;99.90;;;;;;5049861;28;20069;-77
2021/12/10 02:14:00;;;;;;;73.03;29.23;;;-2.20;99.90;;;;;;5048533;28;20028;-77
2021/12/10 02:16:26;;;;;;;70.05;28.10;;;-2.20;99.90;;;;;;5049780;28;20025;-78
2021/12/10 02:18:52;;;;;;;74.72;31.95;;;-2.20;99.90;;;;;;5049785;28;20029;-77
2021/12/10 02:21:20;;;;;;;74.10;28.95;;;-2.20;99.90;;;;;;5049745;28;20025;-77
2021/12/10 02:23:55;;;;;;;74.25;29.58;;;-2.10;99.90;;;;;;5050641;28;20077;-77
2021/12/10 02:26:22;;;;;;;74.20;32.30;;;-2.10;99.90;;;;;;5053444;28;20025;-77
2021/12/10 02:28:47;;;;;;;77.88;34.05;;;-2.10;99.90;;;;;;5051990;28;20048;-77
2021/12/10 02:31:14;;;;;;;80.38;31.75;;;-2.10;99.90;;;;;;5053245;28;20040;-77
2021/12/10 02:33:41;;;;;;;78.20;34.03;;;-2.10;99.90;;;;;;5053086;28;20040;-77
2021/12/10 02:36:11;;;;;;;80.20;32.10;;;-2.10;99.90;;;;;;5051806;28;20056;-77
2021/12/10 02:38:44;;;;;;;83.28;32.50;;;-2.10;99.90;;;;;;5053172;28;20029;-77
2021/12/10 02:41:09;;;;;;;84.10;31.90;;;-2.10;99.90;;;;;;5051947;27;20025;-77
2021/12/10 02:43:36;;;;;;;77.15;31.17;;;-2.10;99.90;;;;;;5053200;28;20550;-76
2021/12/10 02:46:03;;;;;;;76.18;35.25;;;-2.10;99.90;;;;;;5052970;28;20031;-77
2021/12/10 02:48:28;;;;;;;76.30;32.78;;;-2.00;99.90;;;;;;5053040;28;20029;-77
2021/12/10 02:50:55;;;;;;;95.63;37.08;;;-2.00;99.90;;;;;;5053226;28;20029;-77
2021/12/10 02:53:26;;;;;;;94.22;40.45;;;-2.00;99.90;;;;;;5052813;28;20037;-76
2021/12/10 02:55:53;;;;;;;98.07;39.13;;;-2.00;99.90;;;;;;5051546;28;20029;-76
2021/12/10 02:58:18;;;;;;;82.60;35.13;;;-2.00;99.90;;;;;;5052835;28;20029;-77
2021/12/10 03:01:02;;;;;;;78.82;33.72;;;-2.00;99.90;;;;;;5052741;28;20055;-76
2021/12/10 03:03:31;;;;;;;80.93;34.47;;;-2.00;99.90;;;;;;5051409;28;20021;-76
2021/12/10 03:05:57;;;;;;;81.60;31.35;;;-2.00;99.90;;;;;;5052693;28;20132;-76
2021/12/10 03:08:23;;;;;;;78.47;34.72;;;-2.00;99.90;;;;;;5052647;28;20488;-77
2021/12/10 03:10:49;;;;;;;79.70;34.75;;;-2.10;99.90;;;;;;5052601;28;20025;-76
2021/12/10 03:13:15;;;;;;;81.50;34.60;;;-2.10;99.90;;;;;;5052550;28;20033;-76
2021/12/10 03:15:42;;;;;;;105.93;45.10;;;-2.10;99.90;;;;;;5052486;28;20032;-76
2021/12/10 03:18:11;;;;;;;101.97;40.90;;;-2.10;99.90;;;;;;5052542;28;20031;-76
2021/12/10 03:20:37;;;;;;;73.95;32.90;;;-2.10;99.90;;;;;;5052528;28;20052;-76
2021/12/10 03:23:04;;;;;;;79.93;33.25;;;-2.10;99.90;;;;;;5051194;28;20068;-77
2021/12/10 03:25:33;;;;;;;89.95;35.28;;;-2.00;99.90;;;;;;5052279;28;20021;-77
2021/12/10 03:27:59;;;;;;;69.78;31.23;;;-2.10;99.90;;;;;;5052414;28;20025;-77
2021/12/10 03:30:28;;;;;;;76.70;31.33;;;-2.10;99.90;;;;;;5051100;27;20039;-76
2021/12/10 03:32:55;;;;;;;74.07;31.38;;;-2.20;99.90;;;;;;5050986;28;20124;-77
2021/12/10 03:35:26;;;;;;;74.93;29.75;;;-2.20;99.90;;;;;;5050799;28;20438;-77
2021/12/10 03:37:53;;;;;;;70.80;30.33;;;-2.20;99.90;;;;;;5052269;28;20032;-77
2021/12/10 03:40:19;;;;;;;80.13;30.00;;;-2.20;99.90;;;;;;5050893;28;20078;-77
2021/12/10 03:42:47;;;;;;;72.47;32.42;;;-2.20;99.90;;;;;;5050811;27;20025;-76
2021/12/10 03:45:16;;;;;;;82.25;32.33;;;-2.20;99.90;;;;;;5052029;28;20025;-77
2021/12/10 03:47:42;;;;;;;80.57;32.10;;;-2.20;99.90;;;;;;5050833;28;20021;-77
2021/12/10 03:50:12;;;;;;;79.68;31.80;;;-2.10;99.90;;;;;;5051966;28;20032;-77
2021/12/10 03:52:38;;;;;;;86.50;35.92;;;-2.10;99.90;;;;;;5050638;27;20147;-77
2021/12/10 03:55:06;;;;;;;91.43;36.13;;;-2.10;99.90;;;;;;5051930;28;20032;-77
2021/12/10 03:57:31;;;;;;;78.45;33.60;;;-2.10;99.90;;;;;;5051909;28;20104;-77
2021/12/10 03:59:57;;;;;;;79.93;34.97;;;-2.10;99.90;;;;;;5051851;28;20052;-76
2021/12/10 04:02:23;;;;;;;85.85;33.83;;;-2.10;99.90;;;;;;5051853;28;20403;-76
2021/12/10 04:04:50;;;;;;;78.65;32.78;;;-2.10;99.90;;;;;;5051766;28;20029;-76
2021/12/10 04:07:20;;;;;;;79.60;34.03;;;-2.10;99.90;;;;;;5050482;28;20517;-77
2021/12/10 04:09:46;;;;;;;79.80;32.72;;;-2.10;99.90;;;;;;5050296;27;20029;-77
2021/12/10 04:12:12;;;;;;;85.97;33.40;;;-2.20;99.90;;;;;;5051630;28;20036;-77
2021/12/10 04:14:39;;;;;;;88.88;32.97;;;-2.20;99.90;;;;;;5051601;28;20097;-77
2021/12/10 04:17:06;;;;;;;83.95;33.25;;;-2.20;99.90;;;;;;5050308;28;20025;-77
2021/12/10 04:19:36;;;;;;;89.00;36.00;;;-2.30;99.90;;;;;;5051513;28;20021;-76
2021/12/10 04:22:06;;;;;;;88.15;35.70;;;-2.30;99.90;;;;;;5051888;28;20017;-77
2021/12/10 04:24:34;;;;;;;85.57;35.05;;;-2.40;99.90;;;;;;5051416;28;20025;-76
2021/12/10 04:27:02;;;;;;;83.78;35.47;;;-2.40;99.90;;;;;;5050206;28;20029;-77
2021/12/10 04:29:28;;;;;;;85.82;37.55;;;-2.50;99.90;;;;;;5050107;28;20398;-77
2021/12/10 04:31:56;;;;;;;82.53;34.67;;;-2.50;99.90;;;;;;5051275;28;20033;-77
2021/12/10 04:34:22;;;;;;;92.15;36.45;;;-2.40;99.90;;;;;;5051319;28;20028;-76
2021/12/10 04:36:51;;;;;;;104.25;42.25;;;-2.50;99.90;;;;;;5050091;28;20112;-76
2021/12/10 04:39:18;;;;;;;95.03;39.25;;;-2.40;99.90;;;;;;5051264;28;20021;-76
2021/12/10 04:41:44;;;;;;;99.13;40.55;;;-2.40;99.90;;;;;;5051235;28;20104;-76
2021/12/10 04:44:10;;;;;;;90.40;38.55;;;-2.40;99.90;;;;;;5051062;28;20473;-76
2021/12/10 04:46:36;;;;;;;94.32;37.10;;;-2.40;99.90;;;;;;5049027;28;20067;-76
2021/12/10 04:49:06;;;;;;;95.15;39.53;;;-2.40;99.90;;;;;;5051053;28;20053;-76
2021/12/10 04:51:38;;;;;;;92.28;36.70;;;-2.30;99.90;;;;;;5051050;28;20386;-76
2021/12/10 04:54:06;;;;;;;93.28;38.47;;;-2.30;99.90;;;;;;5050901;27;20029;-76
2021/12/10 04:56:37;;;;;;;91.95;37.42;;;-2.30;99.90;;;;;;5049670;28;20029;-76
2021/12/10 04:59:06;;;;;;;95.43;38.22;;;-2.30;99.90;;;;;;5050969;28;20539;-76
2021/12/10 05:01:32;;;;;;;92.82;35.97;;;-2.30;99.90;;;;;;5050909;28;20382;-76
2021/12/10 05:03:58;;;;;;;93.43;39.03;;;-2.30;99.90;;;;;;5050851;28;20024;-76
2021/12/10 05:06:24;;;;;;;91.13;38.88;;;-2.30;99.90;;;;;;5050882;28;20032;-75
2021/12/10 05:08:50;;;;;;;104.75;42.58;;;-2.30;99.90;;;;;;5049497;28;20383;-76
2021/12/10 05:11:16;;;;;;;88.80;39.67;;;-2.30;99.90;;;;;;5050724;28;20039;-76
2021/12/10 05:13:44;;;;;;;99.55;38.35;;;-2.30;99.90;;;;;;5049418;28;20440;-75
2021/12/10 05:16:12;;;;;;;88.80;40.45;;;-2.30;99.90;;;;;;5049672;28;20112;-76
2021/12/10 05:18:41;;;;;;;95.90;42.67;;;-2.30;99.90;;;;;;5049376;28;20116;-76
2021/12/10 05:21:08;;;;;;;102.43;43.08;;;-2.20;99.90;;;;;;5050675;28;20048;-76
2021/12/10 05:23:34;;;;;;;104.97;41.92;;;-2.20;99.90;;;;;;5050610;28;20017;-76
2021/12/10 05:26:00;;;;;;;101.97;41.45;;;-2.20;99.90;;;;;;5050609;28;20096;-76
2021/12/10 05:28:28;;;;;;;104.80;40.88;;;-2.20;99.90;;;;;;5049237;27;20137;-76
2021/12/10 05:30:56;;;;;;;105.35;42.05;;;-2.10;99.90;;;;;;5049548;27;20546;-76
2021/12/10 05:33:23;;;;;;;98.13;40.20;;;-2.10;99.90;;;;;;5049136;27;20482;-76
2021/12/10 05:35:50;;;;;;;93.72;38.30;;;-2.10;99.90;;;;;;5049138;28;20017;-77
2021/12/10 05:38:18;;;;;;;102.90;41.58;;;-2.10;99.90;;;;;;5048867;28;20025;-77
2021/12/10 05:40:45;;;;;;;98.10;40.05;;;-2.10;99.90;;;;;;5050348;28;20108;-76
2021/12/10 05:43:11;;;;;;;110.22;42.22;;;-2.10;99.90;;;;;;5050345;28;20036;-76
2021/12/10 05:45:38;;;;;;;102.10;42.30;;;-2.10;99.90;;;;;;5048927;28;20017;-76
2021/12/10 05:48:04;;;;;;;98.45;41.35;;;-2.10;99.90;;;;;;5050274;28;20017;-76
2021/12/10 05:50:30;;;;;;;116.10;46.40;;;-2.10;99.90;;;;;;5048809;28;20025;-76
2021/12/10 05:52:55;;;;;;;103.82;43.60;;;-2.10;99.90;;;;;;5048860;28;20033;-77
2021/12/10 05:55:22;;;;;;;101.93;42.53;;;-2.10;99.90;;;;;;5050136;28;20033;-76
2021/12/10 05:57:48;;;;;;;110.13;45.65;;;-2.00;99.90;;;;;;5050100;28;20040;-76
2021/12/10 06:00:20;;;;;;;113.75;46.90;;;-2.00;99.90;;;;;;5048721;28;20055;-76
2021/12/10 06:02:46;;;;;;;103.90;44.08;;;-2.00;99.90;;;;;;5049981;27;20078;-76
2021/12/10 06:05:13;;;;;;;102.50;45.28;;;-2.10;99.90;;;;;;5048716;28;20021;-76
2021/12/10 06:07:39;;;;;;;111.88;46.88;;;-2.10;99.90;;;;;;5048702;28;20047;-76
2021/12/10 06:10:07;;;;;;;106.72;45.65;;;-2.10;99.90;;;;;;5050406;28;20028;-75
2021/12/10 06:12:33;;;;;;;118.57;45.90;;;-2.10;99.90;;;;;;5049825;28;20064;-76
2021/12/10 06:14:59;;;;;;;101.57;44.78;;;-2.10;99.90;;;;;;5038110;27;20064;-75
2021/12/10 06:17:25;;;;;;;106.45;46.65;;;-2.10;99.90;;;;;;5029424;28;20029;-76
2021/12/10 06:19:51;;;;;;;133.57;49.55;;;-2.10;99.90;;;;;;5124314;27;20107;-75
2021/12/10 06:22:17;;;;;;;124.47;52.58;;;-2.10;99.90;;;;;;5048090;28;20021;-76
2021/12/10 06:24:42;;;;;;;122.22;50.35;;;-2.10;99.90;;;;;;5046915;28;20044;-75
2021/12/10 06:27:08;;;;;;;130.90;48.00;;;-2.10;99.90;;;;;;5046488;28;20445;-75
2021/12/10 06:29:35;;;;;;;124.43;49.78;;;-2.10;99.90;;;;;;5047280;27;20088;-75
2021/12/10 06:32:02;;;;;;;134.70;54.08;;;-2.00;99.90;;;;;;5049157;27;20486;-76
2021/12/10 06:34:27;;;;;;;150.48;52.53;;;-2.00;99.90;;;;;;5048505;27;20072;-76
2021/12/10 06:36:53;;;;;;;151.57;57.45;;;-2.00;99.90;;;;;;5049781;27;20474;-76
2021/12/10 06:39:20;;;;;;;129.40;51.72;;;-2.00;99.90;;;;;;5084656;27;20064;-75
2021/12/10 06:41:52;;;;;;;162.98;58.35;;;-2.00;99.90;;;;;;5153140;27;20749;-75
2021/12/10 06:44:19;;;;;;;158.23;54.65;;;-2.00;99.90;;;;;;5153783;27;20042;-75
2021/12/10 06:46:45;;;;;;;142.38;51.50;;;-2.00;99.90;;;;;;5053203;27;20027;-76
2021/12/10 06:49:12;;;;;;;132.52;51.63;;;-2.00;99.90;;;;;;5087637;27;20025;-76
2021/12/10 06:51:38;;;;;;;128.30;47.88;;;-2.00;99.90;;;;;;5094630;27;20094;-76
2021/12/10 06:54:04;;;;;;;140.77;56.13;;;-2.00;99.90;;;;;;5105050;27;20027;-76
2021/12/10 06:56:31;;;;;;;129.95;50.88;;;-2.00;99.90;;;;;;5101678;27;20025;-76
2021/12/10 06:58:57;;;;;;;140.85;49.33;;;-1.90;99.90;;;;;;5094496;27;20092;-76
2021/12/10 07:01:29;;;;;;;118.05;44.38;;;-2.00;99.90;;;;;;5099406;27;20491;-76
2021/12/10 07:03:56;;;;;;;117.25;43.28;;;-2.00;99.90;;;;;;5093415;27;20022;-76
2021/12/10 07:06:25;;;;;;;122.07;46.30;;;-2.10;99.90;;;;;;5056487;27;20052;-76
2021/12/10 07:08:52;;;;;;;114.30;46.72;;;-2.10;99.90;;;;;;5049099;28;20054;-76
2021/12/10 07:11:20;;;;;;;131.73;49.22;;;-2.00;99.90;;;;;;5052774;27;20025;-77
2021/12/10 07:13:49;;;;;;;110.50;44.40;;;-2.00;99.90;;;;;;5107703;27;20068;-77
2021/12/10 07:16:17;;;;;;;118.40;47.45;;;-2.00;99.90;;;;;;5093164;27;20017;-76
2021/12/10 07:18:43;;;;;;;114.03;44.10;;;-2.00;99.90;;;;;;5051247;28;20116;-77
2021/12/10 07:21:09;;;;;;;125.03;50.20;;;-2.00;99.90;;;;;;5051271;27;20449;-77
2021/12/10 07:23:37;;;;;;;114.80;44.03;;;-2.00;99.90;;;;;;5052425;27;20021;-77
2021/12/10 07:26:04;;;;;;;120.75;49.17;;;-2.00;99.90;;;;;;5140378;27;20468;-75
2021/12/10 07:28:30;;;;;;;126.50;44.17;;;-1.90;99.90;;;;;;5098002;27;20402;-77
2021/12/10 07:30:56;;;;;;;135.02;51.10;;;-1.90;99.90;;;;;;5106217;27;20027;-76
2021/12/10 07:33:22;;;;;;;123.82;50.05;;;-1.90;99.90;;;;;;5133685;27;20155;-77
2021/12/10 07:35:48;;;;;;;124.30;49.80;;;-1.80;99.90;;;;;;5157468;27;20050;-76
2021/12/10 07:38:15;;;;;;;118.28;44.20;;;-1.80;99.90;;;;;;5157485;27;20019;-76
2021/12/10 07:40:40;;;;;;;118.55;47.42;;;-1.80;99.90;;;;;;5157381;27;20546;-75
2021/12/10 07:43:07;;;;;;;116.05;43.35;;;-1.70;99.90;;;;;;5156194;27;20054;-75
2021/12/10 07:45:34;;;;;;;97.32;42.40;;;-1.70;99.90;;;;;;5155945;27;20023;-76
2021/12/10 07:48:06;;;;;;;87.55;40.47;;;-1.70;99.90;;;;;;5155945;27;20019;-75
2021/12/10 07:50:35;;;;;;;98.18;39.83;;;-1.70;99.90;;;;;;5157184;27;20084;-75
2021/12/10 07:53:04;;;;;;;92.55;41.35;;;-1.60;99.90;;;;;;5157154;27;20031;-76
2021/12/10 07:55:33;;;;;;;96.50;44.22;;;-1.50;99.90;;;;;;5157044;27;20019;-76
2021/12/10 07:58:00;;;;;;;102.28;40.95;;;-1.40;99.90;;;;;;5155787;27;20046;-76
2021/12/10 08:00:27;;;;;;;92.07;39.95;;;-1.40;99.90;;;;;;5157034;27;20491;-76
2021/12/10 08:02:53;;;;;;;89.82;38.05;;;-1.30;99.90;;;;;;5155716;27;20022;-77
2021/12/10 08:05:21;;;;;;;87.85;37.17;;;-1.30;99.90;;;;;;5076353;27;20040;-75
2021/12/10 08:07:48;;;;;;;94.38;38.67;;;-1.30;99.90;;;;;;5049380;28;20029;-75
2021/12/10 08:10:15;;;;;;;104.97;41.05;;;-1.20;99.90;;;;;;5050893;28;20025;-76
2021/12/10 08:12:41;;;;;;;101.55;42.88;;;-1.10;99.90;;;;;;5046459;28;20045;-76
2021/12/10 08:15:08;;;;;;;92.43;38.55;;;-1.10;99.90;;;;;;5050760;28;20074;-75
2021/12/10 08:17:35;;;;;;;89.40;36.25;;;-1.10;99.90;;;;;;5050768;28;20017;-77
2021/12/10 08:20:03;;;;;;;79.70;36.55;;;-1.10;99.90;;;;;;5049018;28;20120;-75
2021/12/10 08:22:29;;;;;;;87.30;38.20;;;-1.10;99.90;;;;;;5047041;28;20021;-76
2021/12/10 08:24:55;;;;;;;86.32;38.42;;;-1.00;99.90;;;;;;5116294;27;20038;-76
2021/12/10 08:27:21;;;;;;;87.57;38.42;;;-1.00;99.90;;;;;;5134162;27;20023;-77
2021/12/10 08:29:48;;;;;;;82.03;37.53;;;-0.90;99.90;;;;;;5133550;27;20023;-77
2021/12/10 08:32:19;;;;;;;97.85;44.70;;;-0.90;99.90;;;;;;5133685;27;20031;-77
2021/12/10 08:34:45;;;;;;;142.90;65.78;;;-0.70;99.90;;;;;;5134147;27;20023;-77
2021/12/10 08:37:10;;;;;;;109.97;51.00;;;-0.60;99.90;;;;;;5135614;27;20353;-77
2021/12/10 08:39:36;;;;;;;92.25;42.58;;;-0.50;99.90;;;;;;5134138;27;20038;-77
2021/12/10 08:42:02;;;;;;;88.63;39.13;;;-0.50;99.90;;;;;;5135494;27;20058;-77
2021/12/10 08:44:28;;;;;;;79.32;38.92;;;-0.40;99.90;;;;;;5135406;27;20452;-77
2021/12/10 08:46:54;;;;;;;73.22;34.22;;;-0.50;99.90;;;;;;5135389;27;20058;-77
2021/12/10 08:49:20;;;;;;;72.75;32.85;;;-0.50;99.90;;;;;;5134029;27;20023;-76
2021/12/10 08:51:53;;;;;;;74.45;33.78;;;-0.40;99.90;;;;;;5133586;27;20027;-77
2021/12/10 08:54:22;;;;;;;76.72;32.83;;;-0.40;99.90;;;;;;5133979;27;20029;-77
2021/12/10 08:56:49;;;;;;;72.25;34.15;;;-0.40;99.90;;;;;;5135138;27;20045;-77
2021/12/10 08:59:15;;;;;;;79.97;34.78;;;-0.20;99.90;;;;;;5133900;27;20122;-77
2021/12/10 09:01:45;;;;;;;81.18;36.08;;;-0.10;99.90;;;;;;5135093;27;20019;-77
2021/12/10 09:04:12;;;;;;;108.22;47.10;;;0.00;99.90;;;;;;5089301;27;20403;-76
2021/12/10 09:06:41;;;;;;;133.82;57.25;;;0.10;99.90;;;;;;5105384;27;20046;-77
2021/12/10 09:09:10;;;;;;;134.32;56.42;;;0.30;99.90;;;;;;5105535;27;20119;-77
2021/12/10 09:11:37;;;;;;;107.50;44.08;;;0.50;99.90;;;;;;5095167;27;20021;-77
2021/12/10 09:14:05;;;;;;;94.00;41.25;;;0.50;99.90;;;;;;5099785;27;20034;-76
2021/12/10 09:16:31;;;;;;;83.22;39.78;;;0.60;99.90;;;;;;5107608;27;20014;-77
2021/12/10 09:19:01;;;;;;;84.28;39.80;;;0.70;99.90;;;;;;5099061;27;20017;-77
2021/12/10 09:21:29;;;;;;;76.07;38.20;;;0.80;99.90;;;;;;5095779;27;20038;-77
2021/12/10 09:24:00;;;;;;;79.55;38.78;;;0.80;99.90;;;;;;5093669;27;20108;-77
2021/12/10 09:26:27;;;;;;;70.03;34.30;;;0.80;99.90;;;;;;5075443;27;20493;-78
2021/12/10 09:28:54;;;;;;;85.80;40.75;;;0.80;99.90;;;;;;5049363;28;20021;-76
2021/12/10 09:31:24;;;;;;;140.18;66.05;;;0.90;99.90;;;;;;5049332;28;20104;-77
2021/12/10 09:33:52;;;;;;;74.68;36.53;;;0.90;99.90;;;;;;5046740;28;20044;-76
2021/12/10 09:36:18;;;;;;;62.22;32.15;;;0.90;99.90;;;;;;5049359;28;20056;-77
2021/12/10 09:38:44;;;;;;;63.85;31.27;;;0.90;99.90;;;;;;5049251;28;20130;-77
2021/12/10 09:41:11;;;;;;;62.30;28.75;;;1.00;99.90;;;;;;5047476;28;20021;-77
2021/12/10 09:43:39;;;;;;;61.78;30.33;;;0.90;99.90;;;;;;5047965;28;20025;-78
2021/12/10 09:46:06;;;;;;;59.78;30.08;;;0.90;99.90;;;;;;5049621;28;20025;-78
2021/12/10 09:48:32;;;;;;;63.95;30.90;;;0.90;99.90;;;;;;5048227;27;20035;-77
2021/12/10 09:51:11;;;;;;;58.30;29.92;;;0.90;99.90;;;;;;5049388;28;20070;-77
2021/12/10 09:53:40;;;;;;;62.78;30.88;;;0.90;99.90;;;;;;5048620;28;20586;-76
2021/12/10 09:56:07;;;;;;;60.60;29.50;;;0.90;99.90;;;;;;5050062;28;20021;-76
2021/12/10 09:58:32;;;;;;;57.42;28.60;;;0.90;99.90;;;;;;5092261;27;20387;-76
2021/12/10 10:01:03;;;;;;;59.38;28.83;;;0.80;99.90;;;;;;5095000;27;20021;-77
2021/12/10 10:03:33;;;;;;;58.40;28.98;;;0.90;99.90;;;;;;5154687;27;20486;-76
2021/12/10 10:05:59;;;;;;;62.42;29.40;;;0.90;99.90;;;;;;5154495;27;20353;-78
2021/12/10 10:08:25;;;;;;;59.40;28.70;;;0.90;99.90;;;;;;5079085;27;20110;-78
2021/12/10 10:10:57;;;;;;;57.13;29.63;;;0.90;99.90;;;;;;5048455;28;20025;-79
2021/12/10 10:13:27;;;;;;;54.33;26.73;;;1.00;99.90;;;;;;5049732;28;20033;-79
2021/12/10 10:15:57;;;;;;;62.00;27.60;;;1.00;99.90;;;;;;5047665;28;20144;-79
2021/12/10 10:18:23;;;;;;;61.08;28.80;;;1.10;99.90;;;;;;5047569;28;20029;-78
2021/12/10 10:20:54;;;;;;;62.08;28.98;;;1.10;99.90;;;;;;5104396;28;20024;-78
2021/12/10 10:23:21;;;;;;;53.55;26.27;;;1.20;99.90;;;;;;5126385;28;20469;-78
2021/12/10 10:25:50;;;;;;;59.85;27.02;;;1.20;99.90;;;;;;5132081;27;20022;-76
2021/12/10 10:28:16;;;;;;;54.08;25.80;;;1.20;99.90;;;;;;5132346;27;20023;-76
2021/12/10 10:30:56;;;;;;;57.65;28.20;;;1.20;99.90;;;;;;5132900;27;20027;-77
2021/12/10 10:33:22;;;;;;;57.95;27.70;;;1.30;99.90;;;;;;5133642;27;20457;-76
2021/12/10 10:35:53;;;;;;;49.33;23.75;;;1.30;99.90;;;;;;5133256;27;20016;-77
2021/12/10 10:38:20;;;;;;;55.97;26.42;;;1.40;99.90;;;;;;5132925;27;20015;-77
2021/12/10 10:40:54;;;;;;;79.18;35.85;;;1.40;99.90;;;;;;5132324;27;20480;-78
2021/12/10 10:43:21;;;;;;;96.32;41.78;;;1.40;99.90;;;;;;5129687;28;20114;-77
2021/12/10 10:45:46;;;;;;;56.85;26.33;;;1.60;99.90;;;;;;5132494;27;20015;-77
2021/12/10 10:48:14;;;;;;;54.42;25.83;;;1.60;99.90;;;;;;5133745;27;20092;-77
2021/12/10 10:50:47;;;;;;;38.90;20.90;;;1.60;99.90;;;;;;5133611;27;20023;-77
2021/12/10 10:53:15;;;;;;;38.50;19.73;;;1.60;99.90;;;;;;5133488;27;20053;-77
2021/12/10 10:56:04;;;;;;;53.60;25.80;;;1.70;99.90;;;;;;5132206;27;20030;-77
2021/12/10 10:58:35;;;;;;;42.28;21.88;;;1.70;99.90;;;;;;5124254;27;20034;-77
2021/12/10 11:01:46;;;;;;;38.22;20.33;;;1.70;99.90;;;;;;5136152;27;20034;-77
2021/12/10 11:04:25;;;;;;;33.25;17.15;;;1.70;99.90;;;;;;5128829;27;20058;-78
2021/12/10 11:06:53;;;;;;;32.22;16.05;;;1.70;99.90;;;;;;5136198;27;20023;-77
2021/12/10 11:09:28;;;;;;;30.52;16.70;;;1.70;99.90;;;;;;5137230;27;20031;-77
2021/12/10 11:12:01;;;;;;;26.77;15.15;;;1.70;99.90;;;;;;5136011;27;20072;-77
2021/12/10 11:14:33;;;;;;;26.38;14.25;;;1.70;99.90;;;;;;5137287;27;20031;-77
2021/12/10 11:17:14;;;;;;;23.52;13.30;;;1.70;99.90;;;;;;5090093;27;20465;-77
2021/12/10 11:19:43;;;;;;;31.15;16.05;;;1.70;99.90;;;;;;5051034;28;20077;-77
2021/12/10 11:22:13;;;;;;;35.90;18.15;;;1.70;99.90;;;;;;5052482;28;20013;-77
2021/12/10 11:24:52;;;;;;;45.28;22.75;;;1.70;99.90;;;;;;5051175;28;20021;-78
2021/12/10 11:27:17;;;;;;;40.35;18.88;;;1.80;99.90;;;;;;5052487;28;20023;-78
2021/12/10 11:29:53;;;;;;;31.77;18.05;;;1.80;99.90;;;;;;5052420;28;20108;-77
2021/12/10 11:32:36;;;;;;;25.90;16.30;;;1.80;99.90;;;;;;5052384;28;20470;-77
2021/12/10 11:35:23;;;;;;;38.75;20.48;;;1.80;99.90;;;;;;5051109;28;20085;-77
2021/12/10 11:38:15;;;;;;;45.00;21.17;;;1.80;99.90;;;;;;5050977;28;20550;-77
2021/12/10 11:41:00;;;;;;;60.15;23.15;;;1.80;99.90;;;;;;5031094;28;20033;-77
2021/12/10 11:47:12;;;;;;;71.03;27.77;;;1.90;99.90;;;;;;5032433;28;20112;-77
2021/12/10 11:49:29;;;;;;;33.78;16.15;;;1.80;99.90;;;;;;5031807;28;20037;-77
2021/12/10 11:52:01;;;;;;;26.60;14.63;;;1.70;99.90;;;;;;5030850;28;20593;-77
2021/12/10 11:54:43;;;;;;;22.92;12.55;;;1.70;99.90;;;;;;5032085;28;20420;-77
2021/12/10 11:57:11;;;;;;;26.08;13.23;;;1.70;99.90;;;;;;5031943;28;20040;-77
2021/12/10 11:59:40;;;;;;;22.73;12.68;;;1.70;99.90;;;;;;5032016;28;20491;-77
2021/12/10 12:02:16;;;;;;;28.65;12.80;;;1.70;99.90;;;;;;5032069;28;20176;-77
2021/12/10 12:04:52;;;;;;;23.95;14.90;;;1.70;99.90;;;;;;5031965;28;20536;-77
2021/12/10 12:07:37;;;;;;;31.45;16.60;;;1.80;99.90;;;;;;5030583;28;20470;-76
2021/12/10 12:10:26;;;;;;;30.63;16.88;;;1.80;99.90;;;;;;5030647;28;20061;-77
2021/12/10 12:13:21;;;;;;;33.15;15.82;;;1.70;99.90;;;;;;5030535;28;20432;-77
2021/12/10 12:15:51;;;;;;;29.90;15.63;;;1.80;99.90;;;;;;5031760;28;20523;-77
2021/12/10 12:18:29;;;;;;;30.92;15.68;;;1.80;99.90;;;;;;5030523;28;20028;-76
2021/12/10 12:26:49;;;;;;;33.78;19.85;;;1.80;99.90;;;;;;5031903;28;20085;-76
2021/12/10 12:29:17;;;;;;;44.15;24.92;;;1.80;99.90;;;;;;5031574;28;20025;-76
2021/12/10 12:31:48;;;;;;;40.97;22.75;;;1.80;99.90;;;;;;5031484;28;20021;-76
2021/12/10 12:34:18;;;;;;;44.47;23.40;;;1.80;99.90;;;;;;5030225;28;20025;-76
2021/12/10 12:37:20;;;;;;;45.65;23.13;;;1.80;99.90;;;;;;5030992;28;20089;-76
2021/12/10 12:39:51;;;;;;;42.60;20.57;;;1.80;99.90;;;;;;5051943;28;20029;-76
2021/12/10 12:42:19;;;;;;;70.60;27.67;;;1.80;99.90;;;;;;5110462;27;20039;-74
2021/12/10 12:44:48;;;;;;;53.28;27.70;;;1.80;99.90;;;;;;5133289;27;20047;-75
2021/12/10 12:47:38;;;;;;;38.58;18.65;;;1.80;99.90;;;;;;5134695;27;20060;-75
2021/12/10 12:50:10;;;;;;;37.15;19.15;;;1.80;99.90;;;;;;5134549;27;20020;-76
2021/12/10 12:52:43;;;;;;;51.00;24.13;;;1.80;99.90;;;;;;5134434;27;20488;-76
2021/12/10 12:55:24;;;;;;;48.83;22.40;;;1.80;99.90;;;;;;5131387;27;20050;-75